createdAt,value
2023-01-13T00:06:52.922Z,19.70
2023-01-13T00:10:33.923Z,9.30
2023-01-13T00:14:26.098Z,15.70
2023-01-13T00:17:52.836Z,10.40
2023-01-13T00:21:38.848Z,13.70
2023-01-13T00:25:34.121Z,11.50
2023-01-13T00:29:00.977Z,12.60
2023-01-13T00:32:37.964Z,12.90
2023-01-13T00:36:10.092Z,14.70
2023-01-13T00:39:45.923Z,20.30
2023-01-13T00:43:40.962Z,15.70
2023-01-13T00:47:13.122Z,18.60
2023-01-13T00:50:58.934Z,18.00
2023-01-13T00:54:50.954Z,14.60
2023-01-13T00:58:19.097Z,12.60
2023-01-13T01:01:44.167Z,12.30
2023-01-13T01:08:53.974Z,23.00
2023-01-13T01:15:53.802Z,9.80
2023-01-13T01:19:23.941Z,15.80
2023-01-13T01:22:58.936Z,23.30
2023-01-13T01:27:04.887Z,24.90
2023-01-13T01:30:39.023Z,17.00
2023-01-13T01:34:15.974Z,12.90
2023-01-13T01:37:42.939Z,17.50
2023-01-13T01:41:33.208Z,19.90
2023-01-13T01:45:15.959Z,15.00
2023-01-13T01:48:49.945Z,20.70
2023-01-13T01:52:21.951Z,16.60
2023-01-13T01:55:50.229Z,14.50
2023-01-13T01:59:48.951Z,14.80
2023-01-13T02:03:45.001Z,15.10
2023-01-13T02:07:43.167Z,16.20
2023-01-13T02:11:24.080Z,13.50
2023-01-13T02:14:56.183Z,17.00
2023-01-13T02:18:39.391Z,20.40
2023-01-13T02:22:22.046Z,15.20
2023-01-13T02:25:58.019Z,14.30
2023-01-13T02:29:46.397Z,21.60
2023-01-13T02:33:40.024Z,17.10
2023-01-13T02:37:28.129Z,14.20
2023-01-13T02:40:58.070Z,20.00
2023-01-13T02:44:41.035Z,24.30
2023-01-13T02:48:24.069Z,15.60
2023-01-13T02:52:09.712Z,20.60
2023-01-13T02:55:40.061Z,13.20
2023-01-13T02:59:07.182Z,21.20
2023-01-13T03:02:33.021Z,18.00
2023-01-13T03:06:06.212Z,21.70
2023-01-13T03:09:43.078Z,25.00
2023-01-13T03:13:13.017Z,23.40
2023-01-13T03:17:27.112Z,24.70
2023-01-13T03:24:27.001Z,31.80
2023-01-13T03:27:54.075Z,19.80
2023-01-13T03:31:19.090Z,24.40
2023-01-13T03:34:48.033Z,23.30
2023-01-13T03:38:12.021Z,18.60
2023-01-13T03:41:37.090Z,29.50
2023-01-13T03:45:13.096Z,20.10
2023-01-13T03:48:46.049Z,9.80
2023-01-13T03:52:19.048Z,13.40
2023-01-13T03:56:01.062Z,21.20
2023-01-13T03:59:54.136Z,27.10
2023-01-13T07:28:21.873Z,39.70
2023-01-13T07:32:07.954Z,28.70
2023-01-13T07:35:50.858Z,28.80
2023-01-13T07:43:27.796Z,23.40
2023-01-13T07:47:15.257Z,23.00
2023-01-13T07:54:48.109Z,22.50
2023-01-13T07:58:47.554Z,24.00
2023-01-13T08:02:31.213Z,19.50
2023-01-13T08:06:23.940Z,23.30
2023-01-13T08:10:20.594Z,16.80
2023-01-13T08:16:54.401Z,11.90
2023-01-13T08:27:36.256Z,15.40
2023-01-13T08:31:23.038Z,15.40
2023-01-13T08:35:12.024Z,25.10
2023-01-13T08:39:01.706Z,23.50
2023-01-13T08:42:43.527Z,14.30
2023-01-13T08:50:19.443Z,18.10
2023-01-13T08:54:04.907Z,16.40
2023-01-13T08:57:28.952Z,16.70
2023-01-13T09:01:09.158Z,16.80
2023-01-13T09:04:56.052Z,24.90
2023-01-13T09:08:35.246Z,20.60
2023-01-13T09:12:16.894Z,22.40
2023-01-13T09:15:58.477Z,16.80
2023-01-13T09:19:47.085Z,11.90
2023-01-13T09:23:28.094Z,16.00
2023-01-13T09:27:15.001Z,14.80
2023-01-13T09:38:34.084Z,14.50
2023-01-13T09:42:32.704Z,26.10
2023-01-13T09:46:38.717Z,14.90
2023-01-13T09:50:52.106Z,22.60
2023-01-13T10:07:05.997Z,13.30
2023-01-13T10:11:03.023Z,17.90
2023-01-13T10:23:12.093Z,13.80
2023-01-13T10:27:12.645Z,22.50
2023-01-13T10:34:05.455Z,24.40
2023-01-13T10:37:55.225Z,19.00
2023-01-13T10:41:54.039Z,21.90
2023-01-13T10:50:01.063Z,15.50
2023-01-13T10:53:56.072Z,20.60
2023-01-13T10:57:49.285Z,13.50
2023-01-13T11:01:34.317Z,18.00
2023-01-13T11:05:49.236Z,15.00
2023-01-13T11:13:25.552Z,20.10
2023-01-13T11:17:06.985Z,21.80
2023-01-13T11:24:48.398Z,18.90
2023-01-13T11:28:45.065Z,18.90
2023-01-13T11:32:33.110Z,15.00
2023-01-13T11:36:36.184Z,12.50
2023-01-13T11:40:28.006Z,16.30
2023-01-13T11:44:19.362Z,13.70
2023-01-13T11:51:57.095Z,11.80
2023-01-13T12:00:12.743Z,14.00
2023-01-13T12:04:03.145Z,13.50
2023-01-13T12:08:09.091Z,7.40
2023-01-13T12:12:36.151Z,13.60
2023-01-13T12:16:42.110Z,14.80
2023-01-13T12:21:05.149Z,15.10
2023-01-13T12:24:52.130Z,12.10
2023-01-13T12:28:42.204Z,13.70
2023-01-13T12:36:57.196Z,12.50
2023-01-13T12:40:52.155Z,12.80
2023-01-13T12:49:17.176Z,13.80
2023-01-13T12:53:20.177Z,9.40
2023-01-13T13:00:56.216Z,9.20
2023-01-13T13:08:50.272Z,18.00
2023-01-13T13:13:08.108Z,31.10
2023-01-13T13:17:07.151Z,12.90
2023-01-13T13:21:29.171Z,14.50
2023-01-13T13:29:58.209Z,12.80
2023-01-13T13:33:59.160Z,23.70
2023-01-13T13:38:13.041Z,12.90
2023-01-13T13:42:05.054Z,19.60
2023-01-13T13:46:02.154Z,22.20
2023-01-13T13:49:52.262Z,18.00
2023-01-13T13:57:50.183Z,16.20
2023-01-13T14:01:41.521Z,17.60
2023-01-13T14:05:38.218Z,23.00
2023-01-13T14:09:17.211Z,18.70
2023-01-13T14:13:06.123Z,17.80
2023-01-13T14:17:09.172Z,13.60
2023-01-13T14:21:08.171Z,16.10
2023-01-13T14:24:48.244Z,28.90
2023-01-13T14:28:39.168Z,15.80
2023-01-13T14:32:37.216Z,17.60
2023-01-13T14:40:33.224Z,25.60
2023-01-13T14:44:14.199Z,21.30
2023-01-13T14:48:15.602Z,17.80
2023-01-13T14:52:02.718Z,15.30
2023-01-13T14:55:59.247Z,19.10
2023-01-13T15:00:11.101Z,18.90
2023-01-13T15:03:59.437Z,23.60
2023-01-13T15:07:44.196Z,16.60
2023-01-13T15:11:29.590Z,16.70
2023-01-13T15:15:19.277Z,17.00
2023-01-13T15:19:13.338Z,24.50
2023-01-13T15:23:12.263Z,25.00
2023-01-13T15:27:07.601Z,22.60
2023-01-13T15:30:56.588Z,29.50
2023-01-13T15:34:33.243Z,17.40
2023-01-13T15:38:09.237Z,14.60
2023-01-13T15:41:57.046Z,21.80
2023-01-13T15:45:45.784Z,25.50
2023-01-13T15:49:27.571Z,28.30
2023-01-13T15:53:37.253Z,25.20
2023-01-13T16:01:21.385Z,23.90
2023-01-13T16:05:14.174Z,21.30
2023-01-13T16:09:08.516Z,23.10
2023-01-13T16:13:05.417Z,28.90
2023-01-13T16:16:58.258Z,30.10
2023-01-13T16:24:15.562Z,37.00
2023-01-13T16:30:52.310Z,25.40
2023-01-13T16:37:13.337Z,24.30
2023-01-13T16:43:32.265Z,34.20
2023-01-13T16:47:03.340Z,29.10
2023-01-13T16:51:13.225Z,26.70
2023-01-13T16:54:59.342Z,34.60
2023-01-13T17:02:08.384Z,30.00
2023-01-13T17:05:54.596Z,21.40
2023-01-13T17:10:03.449Z,29.00
2023-01-13T17:13:50.354Z,20.50
2023-01-13T17:17:58.523Z,31.50
2023-01-13T17:21:45.544Z,29.50
2023-01-13T17:25:36.420Z,33.90
2023-01-13T17:29:16.435Z,28.50
2023-01-13T17:36:53.593Z,24.20
2023-01-13T17:40:55.570Z,27.00
2023-01-13T17:48:34.621Z,22.70
2023-01-13T17:52:21.401Z,20.40
2023-01-13T18:00:12.601Z,23.90
2023-01-13T18:07:30.600Z,27.00
2023-01-13T18:11:22.404Z,26.40
2023-01-13T18:14:47.429Z,34.20
2023-01-13T18:18:25.503Z,21.50
2023-01-13T18:22:22.238Z,32.00
2023-01-13T18:26:08.189Z,31.30
2023-01-13T18:29:55.474Z,37.10
2023-01-13T18:33:44.456Z,29.00
2023-01-13T18:37:21.459Z,28.10
2023-01-13T18:41:06.464Z,33.40
2023-01-13T18:44:58.253Z,27.00
2023-01-13T18:48:50.465Z,34.40
2023-01-13T18:52:43.576Z,29.30
2023-01-13T18:56:14.612Z,32.80
2023-01-13T19:00:07.932Z,28.50
2023-01-13T19:03:51.679Z,36.10
2023-01-13T19:07:35.438Z,39.00
2023-01-13T19:11:14.570Z,39.50
2023-01-13T19:18:47.688Z,35.30
2023-01-13T19:26:20.095Z,38.60
2023-01-13T19:30:04.658Z,44.00
2023-01-13T19:34:01.543Z,37.60
2023-01-13T19:37:44.692Z,49.20
2023-01-13T19:41:25.600Z,39.90
2023-01-13T19:45:19.823Z,37.40
2023-01-13T19:49:03.676Z,33.20
2023-01-13T19:52:42.630Z,35.80
2023-01-13T19:56:25.579Z,34.50
2023-01-13T20:00:05.852Z,41.30
2023-01-13T20:03:57.690Z,48.70
2023-01-13T20:07:41.850Z,45.20
2023-01-13T20:11:41.835Z,46.70
2023-01-13T20:15:39.535Z,33.40
2023-01-13T20:27:01.075Z,34.90
2023-01-13T20:33:31.635Z,47.10
2023-01-13T20:37:18.598Z,40.40
2023-01-13T20:52:36.671Z,47.50
2023-01-13T20:56:22.582Z,48.00
2023-01-13T21:00:08.727Z,44.40
2023-01-13T21:03:56.698Z,41.20
2023-01-13T21:07:48.588Z,47.50
2023-01-13T21:15:33.793Z,35.70
2023-01-13T21:20:11.799Z,35.30
2023-01-13T21:23:57.640Z,35.10
2023-01-13T21:28:21.552Z,41.30
2023-01-13T21:32:12.988Z,40.90
2023-01-13T21:39:21.714Z,34.90
2023-01-13T21:43:25.581Z,48.60
2023-01-13T21:51:39.864Z,46.00
2023-01-13T22:10:08.323Z,37.40
2023-01-13T22:36:22.651Z,39.00
2023-01-13T22:44:07.774Z,42.70
2023-01-13T22:58:39.445Z,43.20
2023-01-13T23:09:07.581Z,37.20
2023-01-13T23:21:59.656Z,41.20
2023-01-13T23:30:02.153Z,35.00
2023-01-13T23:33:51.341Z,33.60
